createdAt,value
2018-06-16T19:04:32.307Z,89.50
2018-06-16T19:07:01.202Z,88.90
2018-06-16T19:14:26.014Z,88.60
2018-06-16T19:16:54.460Z,88.50
2018-06-16T19:19:22.551Z,88.30
2018-06-16T19:21:50.561Z,88.40
2018-06-16T19:29:15.503Z,88.50
2018-06-16T19:31:43.553Z,88.50
2018-06-16T19:34:11.568Z,87.90
2018-06-16T19:39:09.526Z,88.60
2018-06-16T19:41:37.827Z,87.90
2018-06-16T19:44:07.070Z,88.30
2018-06-16T19:49:02.895Z,88.40
2018-06-16T19:51:30.876Z,88.60
2018-06-16T19:53:58.905Z,88.50
2018-06-16T19:58:54.811Z,88.50
2018-06-16T20:01:22.855Z,88.10
2018-06-16T20:03:50.924Z,87.90
2018-06-16T20:13:43.618Z,87.80
2018-06-16T20:16:11.612Z,88.00
2018-06-16T20:18:39.644Z,88.00
2018-06-16T20:21:07.700Z,87.40
2018-06-16T20:23:35.721Z,87.60
2018-06-16T20:26:03.768Z,87.50
2018-06-16T20:28:31.818Z,87.70
2018-06-16T20:30:59.835Z,87.90
2018-06-16T20:33:27.851Z,88.00
2018-06-16T20:35:55.950Z,87.80
2018-06-16T20:38:24.003Z,87.70
2018-06-16T20:43:19.919Z,87.50
2018-06-16T20:45:47.939Z,87.60
2018-06-16T20:50:43.853Z,87.60
2018-06-16T20:53:12.331Z,88.00
2018-06-16T21:00:37.367Z,87.80
2018-06-16T21:03:05.772Z,87.70
2018-06-16T21:08:01.852Z,87.70
2018-06-16T21:10:29.899Z,87.80
2018-06-16T21:12:57.947Z,87.90
2018-06-16T21:15:26.034Z,87.80
2018-06-16T21:20:21.977Z,88.10
2018-06-16T21:22:50.014Z,88.20
2018-06-16T21:25:18.434Z,87.90
2018-06-16T21:27:46.477Z,88.20
2018-06-16T21:30:14.625Z,88.10
2018-06-16T21:32:42.674Z,88.30
2018-06-16T21:35:10.681Z,88.40
2018-06-16T21:37:38.728Z,88.40
2018-06-16T21:42:35.445Z,88.40
2018-06-16T21:45:03.944Z,88.20
2018-06-16T21:47:31.965Z,88.10
2018-06-16T21:50:00.025Z,88.10
2018-06-16T21:52:28.080Z,88.40
2018-06-16T21:54:56.145Z,88.50
2018-06-16T21:57:24.139Z,88.70
2018-06-16T22:07:16.245Z,88.40
2018-06-16T22:12:12.051Z,88.30
2018-06-16T22:14:40.047Z,88.60
2018-06-16T22:17:08.493Z,88.20
2018-06-16T22:19:36.536Z,88.70
2018-06-16T22:24:32.363Z,88.70
2018-06-16T22:29:29.715Z,88.70
2018-06-16T22:31:57.737Z,88.90
2018-06-16T22:34:25.785Z,88.80
2018-06-16T22:39:22.072Z,89.10
2018-06-16T22:44:17.867Z,88.80
2018-06-16T22:49:13.627Z,88.60
2018-06-16T22:51:41.702Z,89.10
2018-06-16T22:54:09.761Z,89.20
2018-06-16T22:56:38.578Z,89.20
2018-06-16T22:59:06.696Z,88.80
2018-06-16T23:01:34.716Z,88.70
2018-06-16T23:04:02.748Z,88.80
2018-06-16T23:06:30.741Z,88.90
2018-06-16T23:08:58.779Z,89.10
2018-06-16T23:11:26.745Z,89.30
2018-06-16T23:13:54.707Z,89.50
2018-06-16T23:16:23.087Z,89.50
2018-06-16T23:21:18.892Z,89.50
2018-06-16T23:23:46.931Z,89.80
2018-06-16T23:26:14.889Z,89.80
2018-06-16T23:31:10.673Z,89.30
2018-06-16T23:33:38.703Z,89.70
2018-06-16T23:36:06.675Z,89.60
2018-06-16T23:38:34.692Z,89.40
2018-06-16T23:41:04.052Z,89.30
2018-06-16T23:43:32.061Z,89.30
2018-06-16T23:46:00.085Z,89.30
2018-06-16T23:50:55.844Z,89.20
2018-06-16T23:55:51.645Z,89.20
2018-06-16T23:58:19.698Z,89.10
